sensor_id;sensor_type;location;lat;lon;timestamp;P1;durP1;ratioP1;P2;durP2;ratioP2
27580;SDS011;63557;52.302;7.964;2023-06-19T00:04:05;12.73;;;11.00;;
27580;SDS011;63557;52.302;7.964;2023-06-19T00:09:06;13.67;;;11.20;;
27580;SDS011;63557;52.302;7.964;2023-06-19T00:14:07;13.73;;;10.80;;
27580;SDS011;63557;52.302;7.964;2023-06-19T00:19:07;12.47;;;11.23;;
27580;SDS011;63557;52.302;7.964;2023-06-19T00:24:07;12.17;;;10.80;;
27580;SDS011;63557;52.302;7.964;2023-06-19T00:29:08;13.20;;;10.98;;
27580;SDS011;63557;52.302;7.964;2023-06-19T00:34:08;12.90;;;10.77;;
27580;SDS011;63557;52.302;7.964;2023-06-19T00:39:08;14.20;;;11.33;;
27580;SDS011;63557;52.302;7.964;2023-06-19T00:44:09;11.80;;;10.60;;
27580;SDS011;63557;52.302;7.964;2023-06-19T00:49:09;14.30;;;11.48;;
27580;SDS011;63557;52.302;7.964;2023-06-19T00:54:10;12.30;;;10.88;;
27580;SDS011;63557;52.302;7.964;2023-06-19T00:59:18;14.65;;;10.77;;
27580;SDS011;63557;52.302;7.964;2023-06-19T01:04:18;13.93;;;11.68;;
27580;SDS011;63557;52.302;7.964;2023-06-19T01:09:18;12.10;;;10.90;;
27580;SDS011;63557;52.302;7.964;2023-06-19T01:14:54;15.95;;;11.13;;
27580;SDS011;63557;52.302;7.964;2023-06-19T01:19:47;13.73;;;11.85;;
27580;SDS011;63557;52.302;7.964;2023-06-19T01:24:47;10.98;;;9.98;;
27580;SDS011;63557;52.302;7.964;2023-06-19T01:29:48;12.93;;;11.33;;
27580;SDS011;63557;52.302;7.964;2023-06-19T01:34:48;13.02;;;11.65;;
27580;SDS011;63557;52.302;7.964;2023-06-19T01:39:50;12.88;;;11.57;;
27580;SDS011;63557;52.302;7.964;2023-06-19T01:44:50;14.80;;;11.97;;
27580;SDS011;63557;52.302;7.964;2023-06-19T01:49:51;11.60;;;10.40;;
27580;SDS011;63557;52.302;7.964;2023-06-19T01:54:51;13.32;;;11.95;;
27580;SDS011;63557;52.302;7.964;2023-06-19T01:59:52;12.73;;;11.43;;
27580;SDS011;63557;52.302;7.964;2023-06-19T02:04:53;14.02;;;11.85;;
27580;SDS011;63557;52.302;7.964;2023-06-19T02:09:54;15.63;;;11.43;;
27580;SDS011;63557;52.302;7.964;2023-06-19T02:14:56;13.57;;;11.82;;
27580;SDS011;63557;52.302;7.964;2023-06-19T02:19:56;15.18;;;11.98;;
27580;SDS011;63557;52.302;7.964;2023-06-19T02:24:57;13.88;;;12.00;;
27580;SDS011;63557;52.302;7.964;2023-06-19T02:29:57;16.40;;;12.53;;
27580;SDS011;63557;52.302;7.964;2023-06-19T02:34:58;15.70;;;12.23;;
27580;SDS011;63557;52.302;7.964;2023-06-19T02:39:59;14.32;;;11.93;;
27580;SDS011;63557;52.302;7.964;2023-06-19T02:44:59;13.70;;;11.60;;
27580;SDS011;63557;52.302;7.964;2023-06-19T02:50:03;16.65;;;12.48;;
27580;SDS011;63557;52.302;7.964;2023-06-19T02:55:04;13.98;;;12.48;;
27580;SDS011;63557;52.302;7.964;2023-06-19T03:00:04;13.90;;;12.50;;
27580;SDS011;63557;52.302;7.964;2023-06-19T03:05:10;13.52;;;12.07;;
27580;SDS011;63557;52.302;7.964;2023-06-19T03:10:10;13.45;;;12.05;;
27580;SDS011;63557;52.302;7.964;2023-06-19T03:15:11;16.13;;;13.32;;
27580;SDS011;63557;52.302;7.964;2023-06-19T03:20:15;14.55;;;13.05;;
27580;SDS011;63557;52.302;7.964;2023-06-19T03:25:23;13.68;;;12.15;;
27580;SDS011;63557;52.302;7.964;2023-06-19T03:30:24;14.32;;;12.80;;
27580;SDS011;63557;52.302;7.964;2023-06-19T03:35:26;15.05;;;13.25;;
27580;SDS011;63557;52.302;7.964;2023-06-19T03:40:28;15.05;;;13.55;;
27580;SDS011;63557;52.302;7.964;2023-06-19T03:45:29;14.75;;;13.15;;
27580;SDS011;63557;52.302;7.964;2023-06-19T03:50:30;14.25;;;12.00;;
27580;SDS011;63557;52.302;7.964;2023-06-19T03:55:30;15.90;;;13.23;;
27580;SDS011;63557;52.302;7.964;2023-06-19T04:00:31;15.15;;;13.55;;
27580;SDS011;63557;52.302;7.964;2023-06-19T04:05:31;14.75;;;13.10;;
27580;SDS011;63557;52.302;7.964;2023-06-19T04:10:31;18.33;;;12.80;;
27580;SDS011;63557;52.302;7.964;2023-06-19T04:15:32;15.40;;;12.70;;
27580;SDS011;63557;52.302;7.964;2023-06-19T04:20:33;15.23;;;11.88;;
27580;SDS011;63557;52.302;7.964;2023-06-19T04:25:34;16.03;;;12.77;;
27580;SDS011;63557;52.302;7.964;2023-06-19T04:30:34;15.43;;;12.18;;
27580;SDS011;63557;52.302;7.964;2023-06-19T04:35:34;14.67;;;12.73;;
27580;SDS011;63557;52.302;7.964;2023-06-19T04:40:40;15.45;;;12.73;;
27580;SDS011;63557;52.302;7.964;2023-06-19T04:45:43;13.05;;;11.85;;
27580;SDS011;63557;52.302;7.964;2023-06-19T04:50:43;13.98;;;12.38;;
27580;SDS011;63557;52.302;7.964;2023-06-19T04:55:44;13.83;;;11.67;;
27580;SDS011;63557;52.302;7.964;2023-06-19T05:00:45;14.50;;;12.15;;
27580;SDS011;63557;52.302;7.964;2023-06-19T05:05:49;14.73;;;11.43;;
27580;SDS011;63557;52.302;7.964;2023-06-19T05:10:50;14.23;;;12.60;;
27580;SDS011;63557;52.302;7.964;2023-06-19T05:15:50;12.87;;;10.90;;
27580;SDS011;63557;52.302;7.964;2023-06-19T05:20:51;15.60;;;12.65;;
27580;SDS011;63557;52.302;7.964;2023-06-19T05:25:51;13.07;;;11.63;;
27580;SDS011;63557;52.302;7.964;2023-06-19T05:30:51;14.17;;;12.47;;
27580;SDS011;63557;52.302;7.964;2023-06-19T05:35:52;14.95;;;11.85;;
27580;SDS011;63557;52.302;7.964;2023-06-19T05:40:52;12.25;;;10.32;;
27580;SDS011;63557;52.302;7.964;2023-06-19T05:45:53;11.47;;;9.83;;
27580;SDS011;63557;52.302;7.964;2023-06-19T05:50:53;11.07;;;9.65;;
27580;SDS011;63557;52.302;7.964;2023-06-19T05:55:54;11.77;;;9.50;;
27580;SDS011;63557;52.302;7.964;2023-06-19T06:00:54;11.53;;;9.40;;
27580;SDS011;63557;52.302;7.964;2023-06-19T06:05:57;15.18;;;10.20;;
27580;SDS011;63557;52.302;7.964;2023-06-19T06:11:02;11.45;;;10.02;;
27580;SDS011;63557;52.302;7.964;2023-06-19T06:16:03;11.07;;;9.97;;
27580;SDS011;63557;52.302;7.964;2023-06-19T06:21:03;9.10;;;8.13;;
27580;SDS011;63557;52.302;7.964;2023-06-19T06:26:04;15.27;;;8.65;;
27580;SDS011;63557;52.302;7.964;2023-06-19T06:31:05;12.23;;;7.77;;
27580;SDS011;63557;52.302;7.964;2023-06-19T06:36:05;11.50;;;7.20;;
27580;SDS011;63557;52.302;7.964;2023-06-19T06:41:05;10.23;;;6.70;;
27580;SDS011;63557;52.302;7.964;2023-06-19T06:46:06;11.30;;;7.15;;
27580;SDS011;63557;52.302;7.964;2023-06-19T06:51:06;9.50;;;6.97;;
27580;SDS011;63557;52.302;7.964;2023-06-19T06:56:07;8.48;;;6.28;;
27580;SDS011;63557;52.302;7.964;2023-06-19T07:01:07;6.70;;;5.73;;
27580;SDS011;63557;52.302;7.964;2023-06-19T07:06:07;11.13;;;5.87;;
27580;SDS011;63557;52.302;7.964;2023-06-19T07:11:08;6.70;;;5.17;;
27580;SDS011;63557;52.302;7.964;2023-06-19T07:16:08;5.37;;;4.77;;
27580;SDS011;63557;52.302;7.964;2023-06-19T07:21:11;6.73;;;5.13;;
27580;SDS011;63557;52.302;7.964;2023-06-19T07:26:12;5.85;;;5.15;;
27580;SDS011;63557;52.302;7.964;2023-06-19T07:31:13;6.60;;;4.80;;
27580;SDS011;63557;52.302;7.964;2023-06-19T07:36:13;7.13;;;4.67;;
27580;SDS011;63557;52.302;7.964;2023-06-19T07:41:14;8.23;;;5.22;;
27580;SDS011;63557;52.302;7.964;2023-06-19T07:46:15;5.80;;;5.22;;
27580;SDS011;63557;52.302;7.964;2023-06-19T07:51:15;7.38;;;5.38;;
27580;SDS011;63557;52.302;7.964;2023-06-19T07:56:15;6.67;;;5.00;;
27580;SDS011;63557;52.302;7.964;2023-06-19T08:01:16;6.13;;;4.93;;
27580;SDS011;63557;52.302;7.964;2023-06-19T08:06:17;5.18;;;4.30;;
27580;SDS011;63557;52.302;7.964;2023-06-19T08:11:17;5.72;;;4.90;;
27580;SDS011;63557;52.302;7.964;2023-06-19T08:16:18;5.30;;;4.07;;
27580;SDS011;63557;52.302;7.964;2023-06-19T08:21:18;5.47;;;4.28;;
27580;SDS011;63557;52.302;7.964;2023-06-19T08:26:21;6.65;;;4.00;;
27580;SDS011;63557;52.302;7.964;2023-06-19T08:31:21;5.70;;;4.32;;
27580;SDS011;63557;52.302;7.964;2023-06-19T08:41:27;5.82;;;4.10;;
27580;SDS011;63557;52.302;7.964;2023-06-19T08:46:28;4.78;;;4.38;;
27580;SDS011;63557;52.302;7.964;2023-06-19T08:51:28;4.75;;;4.32;;
27580;SDS011;63557;52.302;7.964;2023-06-19T08:56:34;5.75;;;4.60;;
27580;SDS011;63557;52.302;7.964;2023-06-19T09:01:34;5.40;;;4.88;;
27580;SDS011;63557;52.302;7.964;2023-06-19T09:06:35;5.60;;;5.00;;
27580;SDS011;63557;52.302;7.964;2023-06-19T09:11:38;5.40;;;4.90;;
27580;SDS011;63557;52.302;7.964;2023-06-19T09:16:43;7.82;;;5.88;;
27580;SDS011;63557;52.302;7.964;2023-06-19T09:21:43;5.73;;;4.77;;
27580;SDS011;63557;52.302;7.964;2023-06-19T09:26:44;5.10;;;4.70;;
27580;SDS011;63557;52.302;7.964;2023-06-19T09:31:44;5.53;;;4.33;;
27580;SDS011;63557;52.302;7.964;2023-06-19T09:36:45;6.45;;;5.50;;
27580;SDS011;63557;52.302;7.964;2023-06-19T09:41:45;5.55;;;4.60;;
27580;SDS011;63557;52.302;7.964;2023-06-19T09:46:46;5.57;;;4.88;;
27580;SDS011;63557;52.302;7.964;2023-06-19T09:51:47;4.70;;;4.30;;
27580;SDS011;63557;52.302;7.964;2023-06-19T09:56:51;5.25;;;4.70;;
27580;SDS011;63557;52.302;7.964;2023-06-19T10:01:55;5.30;;;4.80;;
27580;SDS011;63557;52.302;7.964;2023-06-19T10:06:56;5.28;;;4.65;;
27580;SDS011;63557;52.302;7.964;2023-06-19T10:11:57;5.13;;;4.45;;
27580;SDS011;63557;52.302;7.964;2023-06-19T10:17:07;4.93;;;4.53;;
27580;SDS011;63557;52.302;7.964;2023-06-19T10:22:07;6.15;;;4.90;;
27580;SDS011;63557;52.302;7.964;2023-06-19T10:27:08;6.37;;;4.60;;
27580;SDS011;63557;52.302;7.964;2023-06-19T10:32:10;11.70;;;4.93;;
27580;SDS011;63557;52.302;7.964;2023-06-19T10:37:11;4.40;;;4.00;;
27580;SDS011;63557;52.302;7.964;2023-06-19T10:42:12;6.93;;;4.43;;
27580;SDS011;63557;52.302;7.964;2023-06-19T10:47:14;5.70;;;4.17;;
27580;SDS011;63557;52.302;7.964;2023-06-19T10:52:14;4.53;;;4.13;;
27580;SDS011;63557;52.302;7.964;2023-06-19T10:57:16;6.28;;;4.20;;
27580;SDS011;63557;52.302;7.964;2023-06-19T11:02:17;3.97;;;3.43;;
27580;SDS011;63557;52.302;7.964;2023-06-19T11:07:18;5.43;;;3.63;;
27580;SDS011;63557;52.302;7.964;2023-06-19T11:12:19;5.60;;;3.50;;
27580;SDS011;63557;52.302;7.964;2023-06-19T11:17:19;3.47;;;3.17;;
27580;SDS011;63557;52.302;7.964;2023-06-19T11:22:21;5.78;;;3.25;;
27580;SDS011;63557;52.302;7.964;2023-06-19T11:27:22;7.83;;;3.87;;
27580;SDS011;63557;52.302;7.964;2023-06-19T11:32:30;3.78;;;3.47;;
27580;SDS011;63557;52.302;7.964;2023-06-19T11:37:32;4.30;;;3.90;;
27580;SDS011;63557;52.302;7.964;2023-06-19T11:42:32;6.13;;;4.13;;
27580;SDS011;63557;52.302;7.964;2023-06-19T11:47:33;3.97;;;3.45;;
27580;SDS011;63557;52.302;7.964;2023-06-19T11:52:34;6.70;;;3.77;;
27580;SDS011;63557;52.302;7.964;2023-06-19T11:57:35;7.13;;;3.90;;
27580;SDS011;63557;52.302;7.964;2023-06-19T12:02:35;4.20;;;3.80;;
27580;SDS011;63557;52.302;7.964;2023-06-19T12:07:36;4.03;;;3.73;;
27580;SDS011;63557;52.302;7.964;2023-06-19T12:12:37;5.05;;;4.55;;
27580;SDS011;63557;52.302;7.964;2023-06-19T12:17:38;4.30;;;3.67;;
27580;SDS011;63557;52.302;7.964;2023-06-19T12:22:38;7.57;;;4.07;;
27580;SDS011;63557;52.302;7.964;2023-06-19T12:27:39;4.55;;;4.15;;
27580;SDS011;63557;52.302;7.964;2023-06-19T12:32:39;7.55;;;4.07;;
27580;SDS011;63557;52.302;7.964;2023-06-19T12:37:40;5.97;;;4.30;;
27580;SDS011;63557;52.302;7.964;2023-06-19T12:42:40;4.77;;;4.20;;
27580;SDS011;63557;52.302;7.964;2023-06-19T12:47:40;4.67;;;4.27;;
27580;SDS011;63557;52.302;7.964;2023-06-19T12:52:41;4.60;;;4.20;;
27580;SDS011;63557;52.302;7.964;2023-06-19T12:57:41;6.83;;;4.83;;
27580;SDS011;63557;52.302;7.964;2023-06-19T13:02:41;6.17;;;4.93;;
27580;SDS011;63557;52.302;7.964;2023-06-19T13:07:43;6.30;;;4.95;;
27580;SDS011;63557;52.302;7.964;2023-06-19T13:12:43;4.97;;;4.57;;
27580;SDS011;63557;52.302;7.964;2023-06-19T13:17:44;5.93;;;5.43;;
27580;SDS011;63557;52.302;7.964;2023-06-19T13:22:44;5.53;;;5.00;;
27580;SDS011;63557;52.302;7.964;2023-06-19T13:27:44;5.83;;;5.20;;
27580;SDS011;63557;52.302;7.964;2023-06-19T13:32:45;6.28;;;5.68;;
27580;SDS011;63557;52.302;7.964;2023-06-19T13:37:45;5.33;;;4.83;;
27580;SDS011;63557;52.302;7.964;2023-06-19T13:42:46;7.22;;;6.18;;
27580;SDS011;63557;52.302;7.964;2023-06-19T13:47:47;7.10;;;6.40;;
27580;SDS011;63557;52.302;7.964;2023-06-19T13:52:47;9.97;;;6.47;;
27580;SDS011;63557;52.302;7.964;2023-06-19T13:57:48;6.50;;;5.90;;
27580;SDS011;63557;52.302;7.964;2023-06-19T14:02:48;7.85;;;7.15;;
27580;SDS011;63557;52.302;7.964;2023-06-19T14:07:50;9.85;;;6.22;;
27580;SDS011;63557;52.302;7.964;2023-06-19T14:12:52;7.00;;;6.32;;
27580;SDS011;63557;52.302;7.964;2023-06-19T14:17:52;12.20;;;7.10;;
27580;SDS011;63557;52.302;7.964;2023-06-19T14:22:53;6.78;;;6.18;;
27580;SDS011;63557;52.302;7.964;2023-06-19T14:27:53;8.00;;;7.20;;
27580;SDS011;63557;52.302;7.964;2023-06-19T14:32:53;8.33;;;7.53;;
27580;SDS011;63557;52.302;7.964;2023-06-19T14:37:54;7.80;;;7.10;;
27580;SDS011;63557;52.302;7.964;2023-06-19T14:42:54;7.77;;;7.00;;
27580;SDS011;63557;52.302;7.964;2023-06-19T14:47:54;7.37;;;6.77;;
27580;SDS011;63557;52.302;7.964;2023-06-19T14:52:55;7.10;;;6.40;;
27580;SDS011;63557;52.302;7.964;2023-06-19T14:57:55;7.87;;;6.27;;
27580;SDS011;63557;52.302;7.964;2023-06-19T15:02:55;7.50;;;6.90;;
27580;SDS011;63557;52.302;7.964;2023-06-19T15:07:56;7.17;;;6.03;;
27580;SDS011;63557;52.302;7.964;2023-06-19T15:12:56;8.10;;;7.27;;
27580;SDS011;63557;52.302;7.964;2023-06-19T15:17:56;8.80;;;8.10;;
27580;SDS011;63557;52.302;7.964;2023-06-19T15:22:57;8.48;;;7.72;;
27580;SDS011;63557;52.302;7.964;2023-06-19T15:27:58;7.60;;;7.00;;
27580;SDS011;63557;52.302;7.964;2023-06-19T15:32:58;7.03;;;6.27;;
27580;SDS011;63557;52.302;7.964;2023-06-19T15:37:58;7.50;;;6.80;;
27580;SDS011;63557;52.302;7.964;2023-06-19T15:42:59;8.98;;;7.25;;
27580;SDS011;63557;52.302;7.964;2023-06-19T15:48:00;8.03;;;7.23;;
27580;SDS011;63557;52.302;7.964;2023-06-19T15:53:00;9.13;;;8.07;;
27580;SDS011;63557;52.302;7.964;2023-06-19T15:58:01;9.75;;;8.23;;
27580;SDS011;63557;52.302;7.964;2023-06-19T16:03:01;9.27;;;8.17;;
27580;SDS011;63557;52.302;7.964;2023-06-19T16:08:01;9.30;;;8.27;;
27580;SDS011;63557;52.302;7.964;2023-06-19T16:13:02;9.27;;;8.20;;
27580;SDS011;63557;52.302;7.964;2023-06-19T16:18:02;8.33;;;7.63;;
27580;SDS011;63557;52.302;7.964;2023-06-19T16:23:03;8.90;;;7.53;;
27580;SDS011;63557;52.302;7.964;2023-06-19T16:28:04;9.23;;;7.90;;
27580;SDS011;63557;52.302;7.964;2023-06-19T16:33:04;10.17;;;7.93;;
27580;SDS011;63557;52.302;7.964;2023-06-19T16:38:04;9.57;;;8.00;;
27580;SDS011;63557;52.302;7.964;2023-06-19T16:43:05;9.63;;;8.27;;
27580;SDS011;63557;52.302;7.964;2023-06-19T16:48:05;9.00;;;7.30;;
27580;SDS011;63557;52.302;7.964;2023-06-19T16:53:06;8.93;;;8.13;;
27580;SDS011;63557;52.302;7.964;2023-06-19T16:58:06;9.68;;;8.75;;
27580;SDS011;63557;52.302;7.964;2023-06-19T17:03:07;9.23;;;8.33;;
27580;SDS011;63557;52.302;7.964;2023-06-19T17:08:07;8.95;;;8.15;;
27580;SDS011;63557;52.302;7.964;2023-06-19T17:13:07;10.00;;;9.03;;
27580;SDS011;63557;52.302;7.964;2023-06-19T17:18:08;10.57;;;8.10;;
27580;SDS011;63557;52.302;7.964;2023-06-19T17:23:08;9.63;;;8.57;;
27580;SDS011;63557;52.302;7.964;2023-06-19T17:28:09;9.35;;;8.55;;
27580;SDS011;63557;52.302;7.964;2023-06-19T17:33:09;12.40;;;8.30;;
27580;SDS011;63557;52.302;7.964;2023-06-19T17:38:10;11.65;;;8.48;;
27580;SDS011;63557;52.302;7.964;2023-06-19T17:43:10;9.87;;;8.97;;
27580;SDS011;63557;52.302;7.964;2023-06-19T17:48:10;10.40;;;9.40;;
27580;SDS011;63557;52.302;7.964;2023-06-19T17:53:11;10.73;;;9.77;;
27580;SDS011;63557;52.302;7.964;2023-06-19T17:58:11;9.88;;;8.82;;
27580;SDS011;63557;52.302;7.964;2023-06-19T18:03:12;13.63;;;9.20;;
27580;SDS011;63557;52.302;7.964;2023-06-19T18:08:12;11.33;;;8.97;;
27580;SDS011;63557;52.302;7.964;2023-06-19T18:13:12;10.43;;;9.43;;
27580;SDS011;63557;52.302;7.964;2023-06-19T18:18:13;10.90;;;9.03;;
27580;SDS011;63557;52.302;7.964;2023-06-19T18:23:13;9.13;;;8.20;;
27580;SDS011;63557;52.302;7.964;2023-06-19T18:28:14;9.87;;;9.00;;
27580;SDS011;63557;52.302;7.964;2023-06-19T18:33:14;10.30;;;9.38;;
27580;SDS011;63557;52.302;7.964;2023-06-19T18:38:14;10.65;;;9.60;;
27580;SDS011;63557;52.302;7.964;2023-06-19T18:43:15;10.07;;;9.23;;
27580;SDS011;63557;52.302;7.964;2023-06-19T18:48:15;10.90;;;9.67;;
27580;SDS011;63557;52.302;7.964;2023-06-19T18:53:16;13.07;;;9.73;;
27580;SDS011;63557;52.302;7.964;2023-06-19T18:58:16;10.60;;;9.23;;
27580;SDS011;63557;52.302;7.964;2023-06-19T19:03:19;10.43;;;9.43;;
27580;SDS011;63557;52.302;7.964;2023-06-19T19:08:19;12.77;;;9.67;;
27580;SDS011;63557;52.302;7.964;2023-06-19T19:13:19;9.63;;;8.73;;
27580;SDS011;63557;52.302;7.964;2023-06-19T19:18:20;10.23;;;9.20;;
27580;SDS011;63557;52.302;7.964;2023-06-19T19:23:20;13.97;;;9.87;;
27580;SDS011;63557;52.302;7.964;2023-06-19T19:28:20;12.53;;;10.00;;
27580;SDS011;63557;52.302;7.964;2023-06-19T19:33:22;11.70;;;9.70;;
27580;SDS011;63557;52.302;7.964;2023-06-19T19:38:22;10.60;;;9.50;;
27580;SDS011;63557;52.302;7.964;2023-06-19T19:43:23;11.17;;;10.07;;
27580;SDS011;63557;52.302;7.964;2023-06-19T19:48:23;10.17;;;9.13;;
27580;SDS011;63557;52.302;7.964;2023-06-19T19:53:23;10.73;;;9.63;;
27580;SDS011;63557;52.302;7.964;2023-06-19T19:58:24;11.97;;;9.90;;
27580;SDS011;63557;52.302;7.964;2023-06-19T20:03:26;10.65;;;9.55;;
27580;SDS011;63557;52.302;7.964;2023-06-19T20:08:26;14.97;;;11.57;;
27580;SDS011;63557;52.302;7.964;2023-06-19T20:13:26;12.80;;;10.13;;
27580;SDS011;63557;52.302;7.964;2023-06-19T20:18:27;12.27;;;10.80;;
27580;SDS011;63557;52.302;7.964;2023-06-19T20:23:27;11.23;;;10.07;;
27580;SDS011;63557;52.302;7.964;2023-06-19T20:28:27;15.37;;;11.00;;
27580;SDS011;63557;52.302;7.964;2023-06-19T20:33:28;14.97;;;11.43;;
27580;SDS011;63557;52.302;7.964;2023-06-19T20:38:28;13.47;;;11.13;;
27580;SDS011;63557;52.302;7.964;2023-06-19T20:43:28;14.37;;;10.87;;
27580;SDS011;63557;52.302;7.964;2023-06-19T20:48:29;12.23;;;11.05;;
27580;SDS011;63557;52.302;7.964;2023-06-19T20:53:29;12.47;;;11.27;;
27580;SDS011;63557;52.302;7.964;2023-06-19T20:58:30;14.23;;;11.57;;
27580;SDS011;63557;52.302;7.964;2023-06-19T21:03:33;15.93;;;12.60;;
27580;SDS011;63557;52.302;7.964;2023-06-19T21:08:33;15.77;;;12.87;;
27580;SDS011;63557;52.302;7.964;2023-06-19T21:13:34;15.13;;;12.77;;
27580;SDS011;63557;52.302;7.964;2023-06-19T21:18:34;14.87;;;13.30;;
27580;SDS011;63557;52.302;7.964;2023-06-19T21:23:34;15.50;;;13.65;;
27580;SDS011;63557;52.302;7.964;2023-06-19T21:28:36;17.15;;;14.02;;
27580;SDS011;63557;52.302;7.964;2023-06-19T21:33:37;17.10;;;15.30;;
27580;SDS011;63557;52.302;7.964;2023-06-19T21:38:37;15.20;;;13.70;;
27580;SDS011;63557;52.302;7.964;2023-06-19T21:43:37;16.03;;;14.40;;
27580;SDS011;63557;52.302;7.964;2023-06-19T21:48:38;16.80;;;15.20;;
27580;SDS011;63557;52.302;7.964;2023-06-19T21:53:38;17.55;;;15.73;;
27580;SDS011;63557;52.302;7.964;2023-06-19T21:58:39;17.10;;;15.30;;
27580;SDS011;63557;52.302;7.964;2023-06-19T22:03:39;18.43;;;16.27;;
27580;SDS011;63557;52.302;7.964;2023-06-19T22:08:39;18.83;;;15.93;;
27580;SDS011;63557;52.302;7.964;2023-06-19T22:13:40;19.83;;;16.37;;
27580;SDS011;63557;52.302;7.964;2023-06-19T22:18:40;18.60;;;15.50;;
27580;SDS011;63557;52.302;7.964;2023-06-19T22:23:41;18.20;;;16.50;;
27580;SDS011;63557;52.302;7.964;2023-06-19T22:28:41;19.02;;;17.05;;
27580;SDS011;63557;52.302;7.964;2023-06-19T22:33:42;21.63;;;18.95;;
27580;SDS011;63557;52.302;7.964;2023-06-19T22:38:42;18.83;;;16.87;;
27580;SDS011;63557;52.302;7.964;2023-06-19T22:43:42;19.13;;;16.90;;
27580;SDS011;63557;52.302;7.964;2023-06-19T22:48:43;21.37;;;17.97;;
27580;SDS011;63557;52.302;7.964;2023-06-19T22:53:44;20.98;;;17.42;;
27580;SDS011;63557;52.302;7.964;2023-06-19T22:58:44;18.47;;;16.53;;
27580;SDS011;63557;52.302;7.964;2023-06-19T23:03:45;18.73;;;16.73;;
27580;SDS011;63557;52.302;7.964;2023-06-19T23:08:46;20.98;;;15.93;;
27580;SDS011;63557;52.302;7.964;2023-06-19T23:13:49;17.35;;;15.55;;
27580;SDS011;63557;52.302;7.964;2023-06-19T23:18:49;19.07;;;16.00;;
27580;SDS011;63557;52.302;7.964;2023-06-19T23:23:50;21.57;;;16.77;;
27580;SDS011;63557;52.302;7.964;2023-06-19T23:28:51;21.77;;;17.60;;
27580;SDS011;63557;52.302;7.964;2023-06-19T23:33:51;27.13;;;20.50;;
27580;SDS011;63557;52.302;7.964;2023-06-19T23:38:54;22.67;;;19.45;;
27580;SDS011;63557;52.302;7.964;2023-06-19T23:43:54;20.95;;;18.70;;
27580;SDS011;63557;52.302;7.964;2023-06-19T23:48:54;25.97;;;19.07;;
27580;SDS011;63557;52.302;7.964;2023-06-19T23:53:55;20.03;;;17.93;;
27580;SDS011;63557;52.302;7.964;2023-06-19T23:58:55;19.03;;;16.57;;
